createdAt,value
2022-09-04T00:00:17.792Z,87707.63
2022-09-04T00:03:14.253Z,87713.69
2022-09-04T00:14:13.594Z,87701.59
2022-09-04T00:17:06.171Z,87703.91
2022-09-04T00:19:55.868Z,87705.38
2022-09-04T00:30:43.298Z,87693.25
2022-09-04T00:33:51.495Z,87683.78
2022-09-04T00:36:25.073Z,87683.00
2022-09-04T00:39:00.774Z,87690.97
2022-09-04T00:46:22.593Z,87694.78
2022-09-04T00:49:33.675Z,87698.97
2022-09-04T00:52:29.578Z,87696.31
2022-09-04T00:59:30.717Z,87712.63
2022-09-04T01:02:27.549Z,87713.75
2022-09-04T01:05:07.513Z,87715.28
2022-09-04T01:08:12.247Z,87713.72
2022-09-04T01:11:06.886Z,87712.94
2022-09-04T01:13:47.217Z,87718.25
2022-09-04T01:20:56.461Z,87735.34
2022-09-04T01:32:10.048Z,87737.25
2022-09-04T01:35:08.973Z,87744.09
2022-09-04T01:38:09.794Z,87744.84
2022-09-04T01:44:40.312Z,87745.22
2022-09-04T01:52:17.348Z,87733.88
2022-09-04T01:55:03.937Z,87741.81
2022-09-04T01:58:11.615Z,87743.34
2022-09-04T02:05:14.115Z,87747.50
2022-09-04T02:16:31.418Z,87744.84
2022-09-04T02:19:29.443Z,87740.31
2022-09-04T02:26:20.433Z,87739.53
2022-09-04T02:33:25.971Z,87728.94
2022-09-04T02:40:16.718Z,87731.59
2022-09-04T02:43:32.896Z,87728.56
2022-09-04T02:54:33.043Z,87724.81
2022-09-04T02:57:31.039Z,87729.72
2022-09-04T03:04:13.926Z,87742.22
2022-09-04T03:06:49.076Z,87740.31
2022-09-04T03:09:27.472Z,87744.09
2022-09-04T03:12:21.809Z,87745.25
2022-09-04T03:15:09.371Z,87750.53
2022-09-04T03:17:55.874Z,87749.41
2022-09-04T03:25:01.032Z,87754.75
2022-09-04T03:27:32.624Z,87759.66
2022-09-04T03:30:03.275Z,87752.47
2022-09-04T03:32:43.717Z,87750.22
2022-09-04T03:35:35.750Z,87755.13
2022-09-04T03:38:17.878Z,87759.31
2022-09-04T03:40:53.887Z,87758.56
2022-09-04T03:44:23.979Z,87758.19
2022-09-04T03:47:01.734Z,87752.91
2022-09-04T03:49:57.449Z,87750.25
2022-09-04T03:52:42.444Z,87752.53
2022-09-04T04:00:04.140Z,87757.44
2022-09-04T04:03:20.897Z,87764.25
2022-09-04T04:06:11.655Z,87764.25
2022-09-04T04:13:26.204Z,87763.53
2022-09-04T04:16:24.820Z,87769.97
2022-09-04T04:19:12.672Z,87761.63
2022-09-04T04:26:29.255Z,87768.47
2022-09-04T04:29:53.915Z,87773.41
2022-09-04T04:33:02.671Z,87775.28
2022-09-04T04:39:52.963Z,87778.69
2022-09-04T04:42:29.030Z,87776.03
2022-09-04T04:45:29.820Z,87781.34
2022-09-04T04:52:19.230Z,87785.13
2022-09-04T04:55:15.050Z,87806.31
2022-09-04T04:58:42.573Z,87798.72
2022-09-04T05:01:12.957Z,87805.16
2022-09-04T05:04:01.944Z,87805.53
2022-09-04T05:06:51.008Z,87816.91
2022-09-04T05:09:23.857Z,87822.56
2022-09-04T05:11:53.870Z,87817.63
2022-09-04T05:18:34.576Z,87829.00
2022-09-04T05:21:31.039Z,87825.97
2022-09-04T05:24:22.098Z,87826.34
2022-09-04T05:26:59.725Z,87824.09
2022-09-04T05:33:51.535Z,87832.03
2022-09-04T05:36:29.981Z,87836.56
2022-09-04T05:39:28.779Z,87839.25
2022-09-04T05:42:06.742Z,87836.56
2022-09-04T05:45:16.192Z,87833.94
2022-09-04T05:48:04.529Z,87837.75
2022-09-04T05:50:31.661Z,87830.91
2022-09-04T05:53:26.564Z,87844.91
2022-09-04T05:56:23.222Z,87847.59
2022-09-04T05:59:16.105Z,87846.81
2022-09-04T06:02:26.454Z,87851.34
2022-09-04T06:05:24.582Z,87852.88
2022-09-04T06:08:26.456Z,87857.78
2022-09-04T06:11:32.166Z,87857.78
2022-09-04T06:14:35.512Z,87865.75
2022-09-04T06:17:36.241Z,87874.47
2022-09-04T06:20:33.709Z,87867.63
2022-09-04T06:23:37.753Z,87862.34
2022-09-04T06:27:00.362Z,87863.09
2022-09-04T06:30:11.972Z,87874.81
2022-09-04T06:33:12.127Z,87879.41
2022-09-04T06:36:18.310Z,87885.09
2022-09-04T06:39:20.879Z,87884.69
2022-09-04T06:42:01.051Z,87878.25
2022-09-04T06:45:05.149Z,87885.84
2022-09-04T06:48:09.767Z,87889.25
2022-09-04T06:51:00.219Z,87890.75
2022-09-04T06:53:50.449Z,87888.84
2022-09-04T06:57:07.983Z,87892.63
2022-09-04T07:00:20.416Z,87896.06
2022-09-04T07:03:18.067Z,87895.66
2022-09-04T07:06:03.507Z,87895.69
2022-09-04T07:08:42.705Z,87896.81
2022-09-04T07:11:54.578Z,87896.41
2022-09-04T07:14:42.439Z,87901.34
2022-09-04T07:17:46.800Z,87899.41
2022-09-04T07:20:41.298Z,87903.22
2022-09-04T07:23:23.608Z,87898.25
2022-09-04T07:26:15.667Z,87905.06
2022-09-04T07:29:26.248Z,87904.28
2022-09-04T07:32:11.800Z,87905.44
2022-09-04T07:35:13.220Z,87904.69
2022-09-04T07:38:03.408Z,87909.19
2022-09-04T07:40:42.385Z,87909.19
2022-09-04T07:43:50.245Z,87918.28
2022-09-04T07:46:55.211Z,87913.75
2022-09-04T07:49:37.318Z,87911.44
2022-09-04T07:56:32.104Z,87919.03
2022-09-04T07:59:23.612Z,87911.44
2022-09-04T08:06:21.940Z,87906.09
2022-09-04T08:09:25.295Z,87911.03
2022-09-04T08:12:26.103Z,87903.81
2022-09-04T08:15:42.259Z,87907.56
2022-09-04T08:18:25.238Z,87900.72
2022-09-04T08:21:15.035Z,87901.00
2022-09-04T08:23:57.966Z,87901.75
2022-09-04T08:26:58.996Z,87903.22
2022-09-04T08:29:53.636Z,87905.13
2022-09-04T08:32:48.372Z,87897.19
2022-09-04T08:35:37.517Z,87903.59
2022-09-04T08:38:35.667Z,87907.41
2022-09-04T08:41:51.612Z,87904.78
2022-09-04T08:44:49.386Z,87903.97
2022-09-04T08:48:00.286Z,87909.66
2022-09-04T08:51:38.618Z,87907.72
2022-09-04T08:54:23.998Z,87911.88
2022-09-04T08:57:48.444Z,87906.09
2022-09-04T09:01:03.517Z,87900.34
2022-09-04T09:04:01.935Z,87901.81
2022-09-04T09:06:50.533Z,87902.50
2022-09-04T09:10:02.952Z,87909.34
2022-09-04T09:13:24.679Z,87914.97
2022-09-04T09:16:13.661Z,87906.94
2022-09-04T09:19:02.818Z,87908.44
2022-09-04T09:22:02.684Z,87909.13
2022-09-04T09:24:52.376Z,87912.56
2022-09-04T09:28:09.027Z,87917.47
2022-09-04T09:31:25.529Z,87909.78
2022-09-04T09:34:54.470Z,87913.53
2022-09-04T09:37:48.005Z,87915.31
2022-09-04T09:40:48.895Z,87912.50
2022-09-04T09:44:12.282Z,87913.91
2022-09-04T09:46:58.400Z,87903.94
2022-09-04T09:49:50.184Z,87905.78
2022-09-04T09:53:18.766Z,87908.41
2022-09-04T09:56:24.172Z,87903.38
2022-09-04T09:59:31.149Z,87901.31
2022-09-04T10:02:35.259Z,87900.03
2022-09-04T10:05:46.081Z,87900.44
2022-09-04T10:08:58.267Z,87903.75
2022-09-04T10:12:15.138Z,87894.41
2022-09-04T10:14:51.299Z,87891.63
2022-09-04T10:17:54.741Z,87881.13
2022-09-04T10:21:18.262Z,87892.84
2022-09-04T10:24:17.382Z,87888.16
2022-09-04T10:27:43.961Z,87884.56
2022-09-04T10:34:40.155Z,87882.97
2022-09-04T10:38:02.388Z,87873.47
2022-09-04T10:41:00.167Z,87881.44
2022-09-04T10:43:53.135Z,87879.16
2022-09-04T10:46:42.244Z,87877.22
2022-09-04T10:49:12.810Z,87876.44
2022-09-04T10:52:02.138Z,87869.88
2022-09-04T10:55:01.297Z,87868.72
2022-09-04T10:58:00.482Z,87865.31
2022-09-04T11:00:42.053Z,87871.72
2022-09-04T11:03:41.219Z,87870.34
2022-09-04T11:06:20.097Z,87875.28
2022-09-04T11:09:42.618Z,87863.09
2022-09-04T11:12:47.842Z,87861.25
2022-09-04T11:15:39.728Z,87862.66
2022-09-04T11:18:28.580Z,87867.03
2022-09-04T11:25:37.613Z,87856.81
2022-09-04T11:28:42.282Z,87862.47
2022-09-04T11:31:21.353Z,87860.19
2022-09-04T11:34:34.199Z,87867.09
2022-09-04T11:38:07.575Z,87857.66
2022-09-04T11:40:49.590Z,87853.53
2022-09-04T11:43:31.682Z,87862.69
2022-09-04T11:46:35.895Z,87855.88
2022-09-04T11:49:51.071Z,87855.88
2022-09-04T11:53:01.103Z,87857.28
2022-09-04T12:00:24.844Z,87851.13
2022-09-04T12:03:49.236Z,87851.84
2022-09-04T12:06:37.908Z,87849.94
2022-09-04T12:09:35.700Z,87852.09
2022-09-04T12:12:53.546Z,87846.72
2022-09-04T12:16:08.642Z,87847.31
2022-09-04T12:19:14.175Z,87849.81
2022-09-04T12:22:18.226Z,87851.84
2022-09-04T12:29:52.913Z,87858.63
2022-09-04T12:33:23.910Z,87849.31
2022-09-04T12:40:47.532Z,87849.47
2022-09-04T12:43:37.514Z,87854.13
2022-09-04T12:46:33.804Z,87853.38
2022-09-04T12:53:28.201Z,87847.53
2022-09-04T12:56:11.624Z,87841.97
2022-09-04T12:59:32.239Z,87846.28
2022-09-04T13:02:39.633Z,87839.94
2022-09-04T13:09:11.627Z,87838.78
2022-09-04T13:16:04.122Z,87837.34
2022-09-04T13:18:47.595Z,87830.53
2022-09-04T13:21:33.099Z,87835.72
2022-09-04T13:24:43.620Z,87825.28
2022-09-04T13:27:39.875Z,87833.22
2022-09-04T13:30:19.446Z,87828.25
2022-09-04T13:32:58.971Z,87827.78
2022-09-04T13:35:45.027Z,87827.78
2022-09-04T13:38:42.287Z,87821.66
2022-09-04T13:41:52.589Z,87820.41
2022-09-04T13:44:53.825Z,87821.25
2022-09-04T13:47:32.216Z,87826.28
2022-09-04T13:54:23.527Z,87815.78
2022-09-04T14:01:00.298Z,87817.75
2022-09-04T14:03:41.504Z,87808.28
2022-09-04T14:15:03.499Z,87813.03
2022-09-04T14:18:02.962Z,87814.53
2022-09-04T14:20:52.195Z,87816.16
2022-09-04T14:23:54.545Z,87819.63
2022-09-04T14:26:37.241Z,87816.84
2022-09-04T14:29:17.030Z,87815.53
2022-09-04T14:41:09.757Z,87818.06
2022-09-04T14:47:49.321Z,87830.25
2022-09-04T14:54:37.585Z,87826.16
2022-09-04T14:57:37.232Z,87836.06
2022-09-04T15:00:09.714Z,87834.13
2022-09-04T15:15:21.719Z,87848.84
2022-09-04T15:17:58.699Z,87848.09
2022-09-04T15:20:31.111Z,87845.22
2022-09-04T15:31:40.640Z,87850.81
2022-09-04T15:34:24.453Z,87850.09
2022-09-04T15:45:14.173Z,87854.44
2022-09-04T15:47:58.294Z,87853.09
2022-09-04T15:50:32.612Z,87850.38
2022-09-04T16:01:34.668Z,87860.84
2022-09-04T16:04:37.650Z,87855.84
2022-09-04T16:11:30.628Z,87861.84
2022-09-04T16:14:30.810Z,87875.38
2022-09-04T16:17:18.897Z,87886.00
2022-09-04T16:20:05.526Z,87876.13
2022-09-04T16:30:06.580Z,87892.66
2022-09-04T16:32:35.721Z,87903.94
2022-09-04T16:35:09.396Z,87897.63
2022-09-04T16:37:41.106Z,87902.69
2022-09-04T16:41:01.532Z,87908.25
2022-09-04T16:43:31.535Z,87911.94
2022-09-04T16:46:30.228Z,87922.44
2022-09-04T16:49:14.887Z,87927.97
2022-09-04T16:51:57.666Z,87931.19
2022-09-04T16:54:43.579Z,87931.38
2022-09-04T16:57:16.140Z,87940.69
2022-09-04T17:04:17.299Z,87935.00
2022-09-04T17:10:49.305Z,87951.06
2022-09-04T17:17:30.148Z,87954.69
2022-09-04T17:20:07.283Z,87945.72
2022-09-04T17:29:09.938Z,87952.31
2022-09-04T17:29:34.287Z,87960.78
2022-09-04T17:40:35.813Z,87962.34
2022-09-04T17:41:32.378Z,87967.88
2022-09-04T17:42:37.123Z,87968.47
2022-09-04T17:45:29.467Z,87977.75
2022-09-04T17:48:18.243Z,87974.00
2022-09-04T17:51:06.240Z,87985.97
2022-09-04T17:57:04.502Z,87989.31
2022-09-04T18:00:06.347Z,87997.44
2022-09-04T18:03:04.192Z,88002.16
2022-09-04T18:05:47.285Z,88010.59
2022-09-04T18:08:32.321Z,88015.63
2022-09-04T18:18:25.153Z,88031.63
2022-09-04T18:25:16.117Z,88050.13
2022-09-04T18:28:12.507Z,88047.44
2022-09-04T18:37:11.343Z,88059.69
2022-09-04T18:37:24.741Z,88058.59
2022-09-04T18:37:44.378Z,88062.84
2022-09-04T18:40:12.795Z,88067.91
2022-09-04T18:50:27.930Z,88067.59
2022-09-04T18:50:30.191Z,88068.44
2022-09-04T18:50:53.075Z,88071.16
2022-09-04T18:52:10.958Z,88080.69
2022-09-04T18:54:56.754Z,88075.38
2022-09-04T18:57:46.784Z,88077.31
2022-09-04T19:00:37.696Z,88085.72
2022-09-04T19:03:30.105Z,88088.03
2022-09-04T19:06:09.772Z,88090.69
2022-09-04T19:08:51.754Z,88089.22
2022-09-04T19:11:31.894Z,88096.09
2022-09-04T19:14:15.644Z,88100.28
2022-09-04T19:17:34.864Z,88100.31
2022-09-04T19:20:15.724Z,88099.59
2022-09-04T19:22:54.733Z,88103.44
2022-09-04T19:25:47.519Z,88103.81
2022-09-04T19:28:47.029Z,88109.94
2022-09-04T19:31:40.384Z,88113.44
2022-09-04T19:34:37.288Z,88105.88
2022-09-04T19:38:35.748Z,88107.81
2022-09-04T19:45:53.568Z,88107.84
2022-09-04T19:46:15.955Z,88113.97
2022-09-04T19:47:28.768Z,88118.94
2022-09-04T19:53:32.455Z,88109.47
2022-09-04T19:54:02.241Z,88108.34
2022-09-04T19:57:32.974Z,88115.19
2022-09-04T19:59:56.709Z,88119.03
2022-09-04T20:02:52.246Z,88120.97
2022-09-04T20:05:27.399Z,88119.81
2022-09-04T20:08:13.381Z,88136.19
2022-09-04T20:11:01.592Z,88130.50
2022-09-04T20:13:53.244Z,88135.47
2022-09-04T20:16:32.291Z,88136.25
2022-09-04T20:19:35.015Z,88135.88
2022-09-04T20:22:09.769Z,88142.75
2022-09-04T20:25:02.179Z,88140.81
2022-09-04T20:27:48.524Z,88141.59
2022-09-04T20:30:24.914Z,88146.91
2022-09-04T20:33:17.846Z,88145.41
2022-09-04T20:36:03.066Z,88141.59
2022-09-04T20:38:56.677Z,88145.06
2022-09-04T20:41:54.594Z,88151.13
2022-09-04T20:44:45.857Z,88153.81
2022-09-04T20:52:44.476Z,88155.34
2022-09-04T20:52:58.850Z,88164.09
2022-09-04T20:54:00.833Z,88172.81
2022-09-04T20:59:23.663Z,88170.94
2022-09-04T21:03:14.705Z,88163.34
2022-09-04T21:03:22.274Z,88169.44
2022-09-04T21:06:18.883Z,88173.22
2022-09-04T21:09:05.975Z,88167.53
2022-09-04T21:11:51.936Z,88167.16
2022-09-04T21:14:45.655Z,88178.56
2022-09-04T21:17:57.261Z,88173.66
2022-09-04T21:20:30.242Z,88179.31
2022-09-04T21:23:30.854Z,88182.00
2022-09-04T21:26:04.041Z,88185.44
2022-09-04T21:29:11.343Z,88191.47
2022-09-04T21:32:28.243Z,88191.88
2022-09-04T21:35:13.518Z,88193.38
2022-09-04T21:38:16.942Z,88208.59
2022-09-04T21:41:05.098Z,88202.50
2022-09-04T21:44:06.873Z,88210.84
2022-09-04T21:47:01.784Z,88213.53
2022-09-04T21:50:09.588Z,88218.06
2022-09-04T21:52:55.846Z,88223.38
2022-09-04T22:02:25.441Z,88224.13
2022-09-04T22:02:36.668Z,88224.13
2022-09-04T22:02:54.489Z,88225.97
2022-09-04T22:05:48.495Z,88224.09
2022-09-04T22:13:33.660Z,88228.63
2022-09-04T22:13:42.966Z,88221.81
2022-09-04T22:15:13.122Z,88225.97
2022-09-04T22:18:04.435Z,88226.34
2022-09-04T22:21:31.629Z,88218.38
2022-09-04T22:24:28.981Z,88222.91
2022-09-04T22:28:08.293Z,88223.69
2022-09-04T22:31:03.813Z,88230.88
2022-09-04T22:34:16.843Z,88233.16
2022-09-04T22:37:29.026Z,88239.22
2022-09-04T22:44:53.169Z,88235.00
2022-09-04T22:51:48.477Z,88246.34
2022-09-04T22:54:42.396Z,88243.69
2022-09-04T22:58:15.809Z,88238.38
2022-09-04T23:01:30.242Z,88242.91
2022-09-04T23:04:18.508Z,88245.56
2022-09-04T23:13:50.842Z,88253.50
2022-09-04T23:21:10.537Z,88251.56
2022-09-04T23:26:43.578Z,88253.84
2022-09-04T23:26:49.805Z,88257.22
2022-09-04T23:28:28.761Z,88257.22
2022-09-04T23:32:07.034Z,88252.66
2022-09-04T23:38:55.192Z,88257.53
2022-09-04T23:49:31.137Z,88252.19
2022-09-04T23:52:13.736Z,88238.94
2022-09-04T23:55:39.954Z,88250.66
2022-09-04T23:58:49.399Z,88235.91
